sensor_id;sensor_type;location;lat;lon;timestamp;temperature;humidity
21559;DHT22;10940;48.890;8.240;2022-07-29T00:00:35;22.50;99.90
21559;DHT22;10940;48.890;8.240;2022-07-29T00:03:02;22.40;99.90
21559;DHT22;10940;48.890;8.240;2022-07-29T00:05:28;22.40;99.90
21559;DHT22;10940;48.890;8.240;2022-07-29T00:07:53;22.30;99.90
21559;DHT22;10940;48.890;8.240;2022-07-29T00:10:19;22.20;99.90
21559;DHT22;10940;48.890;8.240;2022-07-29T00:12:44;22.20;99.90
21559;DHT22;10940;48.890;8.240;2022-07-29T00:15:10;22.00;99.90
21559;DHT22;10940;48.890;8.240;2022-07-29T00:17:35;22.00;99.90
21559;DHT22;10940;48.890;8.240;2022-07-29T00:20:01;22.00;99.90
21559;DHT22;10940;48.890;8.240;2022-07-29T00:22:27;22.00;99.90
21559;DHT22;10940;48.890;8.240;2022-07-29T00:24:52;21.90;99.90
21559;DHT22;10940;48.890;8.240;2022-07-29T00:27:18;21.80;99.90
21559;DHT22;10940;48.890;8.240;2022-07-29T00:29:44;21.70;99.90
21559;DHT22;10940;48.890;8.240;2022-07-29T00:32:09;21.60;99.90
21559;DHT22;10940;48.890;8.240;2022-07-29T00:34:35;21.60;99.90
21559;DHT22;10940;48.890;8.240;2022-07-29T00:37:19;21.60;99.90
21559;DHT22;10940;48.890;8.240;2022-07-29T00:39:44;21.40;99.90
21559;DHT22;10940;48.890;8.240;2022-07-29T00:42:10;21.40;99.90
21559;DHT22;10940;48.890;8.240;2022-07-29T00:44:40;21.40;99.90
21559;DHT22;10940;48.890;8.240;2022-07-29T00:47:07;21.30;99.90
21559;DHT22;10940;48.890;8.240;2022-07-29T00:49:33;21.30;99.90
21559;DHT22;10940;48.890;8.240;2022-07-29T00:52:01;21.30;99.90
21559;DHT22;10940;48.890;8.240;2022-07-29T00:54:27;21.30;99.90
21559;DHT22;10940;48.890;8.240;2022-07-29T00:56:56;21.20;99.90
21559;DHT22;10940;48.890;8.240;2022-07-29T00:59:21;21.30;99.90
21559;DHT22;10940;48.890;8.240;2022-07-29T01:01:47;21.30;99.90
21559;DHT22;10940;48.890;8.240;2022-07-29T01:04:12;21.40;99.90
21559;DHT22;10940;48.890;8.240;2022-07-29T01:06:38;21.30;99.90
21559;DHT22;10940;48.890;8.240;2022-07-29T01:09:04;21.40;99.90
21559;DHT22;10940;48.890;8.240;2022-07-29T01:11:29;21.30;99.90
21559;DHT22;10940;48.890;8.240;2022-07-29T01:13:55;21.30;99.90
21559;DHT22;10940;48.890;8.240;2022-07-29T01:16:27;21.30;99.90
21559;DHT22;10940;48.890;8.240;2022-07-29T01:19:03;21.30;99.90
21559;DHT22;10940;48.890;8.240;2022-07-29T01:24:46;21.10;99.90
21559;DHT22;10940;48.890;8.240;2022-07-29T01:30:14;21.00;99.90
21559;DHT22;10940;48.890;8.240;2022-07-29T01:32:40;20.90;99.90
21559;DHT22;10940;48.890;8.240;2022-07-29T01:35:17;20.80;99.90
21559;DHT22;10940;48.890;8.240;2022-07-29T01:37:48;20.80;99.90
21559;DHT22;10940;48.890;8.240;2022-07-29T01:40:29;20.70;99.90
21559;DHT22;10940;48.890;8.240;2022-07-29T01:42:58;20.70;99.90
21559;DHT22;10940;48.890;8.240;2022-07-29T01:47:54;20.60;99.90
21559;DHT22;10940;48.890;8.240;2022-07-29T01:50:28;20.60;99.90
21559;DHT22;10940;48.890;8.240;2022-07-29T01:53:00;20.50;99.90
21559;DHT22;10940;48.890;8.240;2022-07-29T01:55:29;20.50;99.90
21559;DHT22;10940;48.890;8.240;2022-07-29T01:57:58;20.40;99.90
21559;DHT22;10940;48.890;8.240;2022-07-29T02:00:25;20.40;99.90
21559;DHT22;10940;48.890;8.240;2022-07-29T02:02:53;20.40;99.90
21559;DHT22;10940;48.890;8.240;2022-07-29T02:05:21;20.30;99.90
21559;DHT22;10940;48.890;8.240;2022-07-29T02:07:49;20.20;99.90
21559;DHT22;10940;48.890;8.240;2022-07-29T02:10:19;20.10;99.90
21559;DHT22;10940;48.890;8.240;2022-07-29T02:12:46;20.00;99.90
21559;DHT22;10940;48.890;8.240;2022-07-29T02:15:14;20.00;99.90
21559;DHT22;10940;48.890;8.240;2022-07-29T02:17:45;19.90;99.90
21559;DHT22;10940;48.890;8.240;2022-07-29T02:20:14;19.90;99.90
21559;DHT22;10940;48.890;8.240;2022-07-29T02:22:41;19.80;99.90
21559;DHT22;10940;48.890;8.240;2022-07-29T02:25:10;19.80;99.90
21559;DHT22;10940;48.890;8.240;2022-07-29T02:27:37;19.60;99.90
21559;DHT22;10940;48.890;8.240;2022-07-29T02:30:06;19.60;99.90
21559;DHT22;10940;48.890;8.240;2022-07-29T02:32:34;19.60;99.90
21559;DHT22;10940;48.890;8.240;2022-07-29T02:35:01;19.70;99.90
21559;DHT22;10940;48.890;8.240;2022-07-29T02:37:27;19.50;99.90
21559;DHT22;10940;48.890;8.240;2022-07-29T02:39:55;19.50;99.90
21559;DHT22;10940;48.890;8.240;2022-07-29T02:42:23;19.50;99.90
21559;DHT22;10940;48.890;8.240;2022-07-29T02:44:49;19.50;99.90
21559;DHT22;10940;48.890;8.240;2022-07-29T02:47:28;19.50;99.90
21559;DHT22;10940;48.890;8.240;2022-07-29T02:50:06;19.40;99.90
21559;DHT22;10940;48.890;8.240;2022-07-29T03:00:05;19.30;99.90
21559;DHT22;10940;48.890;8.240;2022-07-29T03:02:35;19.20;99.90
21559;DHT22;10940;48.890;8.240;2022-07-29T03:05:04;19.20;99.90
21559;DHT22;10940;48.890;8.240;2022-07-29T03:07:32;19.10;99.90
21559;DHT22;10940;48.890;8.240;2022-07-29T03:09:59;19.10;99.90
21559;DHT22;10940;48.890;8.240;2022-07-29T03:12:25;19.20;99.90
21559;DHT22;10940;48.890;8.240;2022-07-29T03:14:52;19.20;99.90
21559;DHT22;10940;48.890;8.240;2022-07-29T03:17:18;19.20;99.90
21559;DHT22;10940;48.890;8.240;2022-07-29T03:19:44;19.20;99.90
21559;DHT22;10940;48.890;8.240;2022-07-29T03:22:11;19.20;99.90
21559;DHT22;10940;48.890;8.240;2022-07-29T03:24:37;19.20;99.90
21559;DHT22;10940;48.890;8.240;2022-07-29T03:27:03;19.10;99.90
21559;DHT22;10940;48.890;8.240;2022-07-29T03:29:29;19.10;99.90
21559;DHT22;10940;48.890;8.240;2022-07-29T03:31:55;19.10;99.90
21559;DHT22;10940;48.890;8.240;2022-07-29T03:34:21;19.10;99.90
21559;DHT22;10940;48.890;8.240;2022-07-29T03:36:47;19.10;99.90
21559;DHT22;10940;48.890;8.240;2022-07-29T03:39:17;19.10;99.90
21559;DHT22;10940;48.890;8.240;2022-07-29T03:41:45;19.10;99.90
21559;DHT22;10940;48.890;8.240;2022-07-29T03:44:11;19.10;99.90
21559;DHT22;10940;48.890;8.240;2022-07-29T03:46:38;19.10;99.90
21559;DHT22;10940;48.890;8.240;2022-07-29T03:49:06;19.00;99.90
21559;DHT22;10940;48.890;8.240;2022-07-29T03:51:34;18.90;99.90
21559;DHT22;10940;48.890;8.240;2022-07-29T03:54:04;19.00;99.90
21559;DHT22;10940;48.890;8.240;2022-07-29T03:56:32;18.90;99.90
21559;DHT22;10940;48.890;8.240;2022-07-29T03:59:01;18.90;99.90
21559;DHT22;10940;48.890;8.240;2022-07-29T04:01:28;18.90;99.90
21559;DHT22;10940;48.890;8.240;2022-07-29T04:03:54;18.90;99.90
21559;DHT22;10940;48.890;8.240;2022-07-29T04:06:20;18.90;99.90
21559;DHT22;10940;48.890;8.240;2022-07-29T04:08:46;18.90;99.90
21559;DHT22;10940;48.890;8.240;2022-07-29T04:11:12;19.00;99.90
21559;DHT22;10940;48.890;8.240;2022-07-29T04:13:38;19.00;99.90
21559;DHT22;10940;48.890;8.240;2022-07-29T04:16:04;18.90;99.90
21559;DHT22;10940;48.890;8.240;2022-07-29T04:18:29;18.90;99.90
21559;DHT22;10940;48.890;8.240;2022-07-29T04:20:55;19.00;99.90
21559;DHT22;10940;48.890;8.240;2022-07-29T04:23:20;19.00;99.90
21559;DHT22;10940;48.890;8.240;2022-07-29T04:25:46;18.90;99.90
21559;DHT22;10940;48.890;8.240;2022-07-29T04:28:12;18.90;99.90
21559;DHT22;10940;48.890;8.240;2022-07-29T04:30:38;18.90;99.90
21559;DHT22;10940;48.890;8.240;2022-07-29T04:33:06;18.90;99.90
21559;DHT22;10940;48.890;8.240;2022-07-29T04:35:38;18.90;99.90
21559;DHT22;10940;48.890;8.240;2022-07-29T04:38:05;18.90;99.90
21559;DHT22;10940;48.890;8.240;2022-07-29T04:40:31;18.90;99.90
21559;DHT22;10940;48.890;8.240;2022-07-29T04:42:59;19.00;99.90
21559;DHT22;10940;48.890;8.240;2022-07-29T04:45:24;19.00;99.90
21559;DHT22;10940;48.890;8.240;2022-07-29T04:47:50;19.00;99.90
21559;DHT22;10940;48.890;8.240;2022-07-29T04:50:15;19.00;99.90
21559;DHT22;10940;48.890;8.240;2022-07-29T04:52:41;18.90;99.90
21559;DHT22;10940;48.890;8.240;2022-07-29T04:55:07;18.90;99.90
21559;DHT22;10940;48.890;8.240;2022-07-29T04:57:33;18.90;99.90
21559;DHT22;10940;48.890;8.240;2022-07-29T04:59:59;18.90;99.90
21559;DHT22;10940;48.890;8.240;2022-07-29T05:02:25;18.90;99.90
21559;DHT22;10940;48.890;8.240;2022-07-29T05:04:51;18.90;99.90
21559;DHT22;10940;48.890;8.240;2022-07-29T05:07:16;18.90;99.90
21559;DHT22;10940;48.890;8.240;2022-07-29T05:09:42;19.00;99.90
21559;DHT22;10940;48.890;8.240;2022-07-29T05:12:08;19.00;99.90
21559;DHT22;10940;48.890;8.240;2022-07-29T05:14:33;19.00;99.90
21559;DHT22;10940;48.890;8.240;2022-07-29T05:16:59;19.00;99.90
21559;DHT22;10940;48.890;8.240;2022-07-29T05:19:24;19.00;99.90
21559;DHT22;10940;48.890;8.240;2022-07-29T05:21:50;19.00;99.90
21559;DHT22;10940;48.890;8.240;2022-07-29T05:24:16;19.00;99.90
21559;DHT22;10940;48.890;8.240;2022-07-29T05:26:42;19.10;99.90
21559;DHT22;10940;48.890;8.240;2022-07-29T05:29:08;19.10;99.90
21559;DHT22;10940;48.890;8.240;2022-07-29T05:31:33;19.20;99.90
21559;DHT22;10940;48.890;8.240;2022-07-29T05:33:59;19.30;99.90
21559;DHT22;10940;48.890;8.240;2022-07-29T05:36:25;19.40;99.90
21559;DHT22;10940;48.890;8.240;2022-07-29T05:38:51;19.40;99.90
21559;DHT22;10940;48.890;8.240;2022-07-29T05:41:18;19.60;99.90
21559;DHT22;10940;48.890;8.240;2022-07-29T05:43:43;19.70;99.90
21559;DHT22;10940;48.890;8.240;2022-07-29T05:46:09;19.80;99.90
21559;DHT22;10940;48.890;8.240;2022-07-29T05:48:35;19.90;99.90
21559;DHT22;10940;48.890;8.240;2022-07-29T05:51:01;20.00;99.90
21559;DHT22;10940;48.890;8.240;2022-07-29T05:53:26;20.10;99.90
21559;DHT22;10940;48.890;8.240;2022-07-29T05:55:52;20.20;99.90
21559;DHT22;10940;48.890;8.240;2022-07-29T05:58:18;20.20;99.90
21559;DHT22;10940;48.890;8.240;2022-07-29T06:00:44;20.30;99.90
21559;DHT22;10940;48.890;8.240;2022-07-29T06:03:10;20.30;99.90
21559;DHT22;10940;48.890;8.240;2022-07-29T06:05:36;20.30;99.90
21559;DHT22;10940;48.890;8.240;2022-07-29T06:08:01;20.50;99.90
21559;DHT22;10940;48.890;8.240;2022-07-29T06:10:27;20.40;99.90
21559;DHT22;10940;48.890;8.240;2022-07-29T06:12:52;20.50;99.90
21559;DHT22;10940;48.890;8.240;2022-07-29T06:15:18;20.40;99.90
21559;DHT22;10940;48.890;8.240;2022-07-29T06:17:44;20.50;99.90
21559;DHT22;10940;48.890;8.240;2022-07-29T06:20:10;20.60;99.90
21559;DHT22;10940;48.890;8.240;2022-07-29T06:22:35;20.60;99.90
21559;DHT22;10940;48.890;8.240;2022-07-29T06:25:02;20.60;99.90
21559;DHT22;10940;48.890;8.240;2022-07-29T06:27:28;20.70;99.90
21559;DHT22;10940;48.890;8.240;2022-07-29T06:29:53;20.80;99.90
21559;DHT22;10940;48.890;8.240;2022-07-29T06:32:19;20.80;99.90
21559;DHT22;10940;48.890;8.240;2022-07-29T06:34:44;20.80;99.90
21559;DHT22;10940;48.890;8.240;2022-07-29T06:37:10;20.90;99.90
21559;DHT22;10940;48.890;8.240;2022-07-29T06:39:36;20.90;99.90
21559;DHT22;10940;48.890;8.240;2022-07-29T06:42:05;21.00;99.90
21559;DHT22;10940;48.890;8.240;2022-07-29T06:44:31;21.00;99.90
21559;DHT22;10940;48.890;8.240;2022-07-29T06:46:59;21.20;99.90
21559;DHT22;10940;48.890;8.240;2022-07-29T06:49:25;21.30;99.90
21559;DHT22;10940;48.890;8.240;2022-07-29T06:51:52;21.40;99.90
21559;DHT22;10940;48.890;8.240;2022-07-29T06:54:18;21.50;99.90
21559;DHT22;10940;48.890;8.240;2022-07-29T06:56:43;21.70;99.90
21559;DHT22;10940;48.890;8.240;2022-07-29T06:59:10;21.80;99.90
21559;DHT22;10940;48.890;8.240;2022-07-29T07:01:41;21.90;99.90
21559;DHT22;10940;48.890;8.240;2022-07-29T07:04:08;22.00;99.90
21559;DHT22;10940;48.890;8.240;2022-07-29T07:06:34;22.10;99.90
21559;DHT22;10940;48.890;8.240;2022-07-29T07:08:59;22.20;99.90
21559;DHT22;10940;48.890;8.240;2022-07-29T07:11:25;22.20;99.90
21559;DHT22;10940;48.890;8.240;2022-07-29T07:13:50;22.40;99.90
21559;DHT22;10940;48.890;8.240;2022-07-29T07:16:16;22.40;99.90
21559;DHT22;10940;48.890;8.240;2022-07-29T07:18:42;22.50;99.90
21559;DHT22;10940;48.890;8.240;2022-07-29T07:21:07;22.60;99.90
21559;DHT22;10940;48.890;8.240;2022-07-29T07:23:33;22.80;99.90
21559;DHT22;10940;48.890;8.240;2022-07-29T07:25:59;22.90;99.90
21559;DHT22;10940;48.890;8.240;2022-07-29T07:28:24;22.90;99.90
21559;DHT22;10940;48.890;8.240;2022-07-29T07:30:50;23.00;99.90
21559;DHT22;10940;48.890;8.240;2022-07-29T07:33:15;23.10;99.90
21559;DHT22;10940;48.890;8.240;2022-07-29T07:35:41;23.20;99.90
21559;DHT22;10940;48.890;8.240;2022-07-29T07:38:07;23.30;99.90
21559;DHT22;10940;48.890;8.240;2022-07-29T07:40:32;23.40;99.90
21559;DHT22;10940;48.890;8.240;2022-07-29T07:42:58;23.50;99.90
21559;DHT22;10940;48.890;8.240;2022-07-29T07:45:24;23.50;99.90
21559;DHT22;10940;48.890;8.240;2022-07-29T07:47:49;23.60;99.90
21559;DHT22;10940;48.890;8.240;2022-07-29T07:50:15;23.60;99.90
21559;DHT22;10940;48.890;8.240;2022-07-29T07:52:51;23.70;99.90
21559;DHT22;10940;48.890;8.240;2022-07-29T07:55:17;23.70;99.90
21559;DHT22;10940;48.890;8.240;2022-07-29T07:57:44;23.70;99.90
21559;DHT22;10940;48.890;8.240;2022-07-29T08:00:10;23.80;99.90
21559;DHT22;10940;48.890;8.240;2022-07-29T08:02:37;23.80;99.90
21559;DHT22;10940;48.890;8.240;2022-07-29T08:05:03;23.80;99.90
21559;DHT22;10940;48.890;8.240;2022-07-29T08:07:29;23.80;99.90
21559;DHT22;10940;48.890;8.240;2022-07-29T08:09:54;23.80;99.90
21559;DHT22;10940;48.890;8.240;2022-07-29T08:12:20;23.80;99.90
21559;DHT22;10940;48.890;8.240;2022-07-29T08:14:45;23.90;99.90
21559;DHT22;10940;48.890;8.240;2022-07-29T08:17:11;24.00;99.90
21559;DHT22;10940;48.890;8.240;2022-07-29T08:19:37;24.00;99.90
21559;DHT22;10940;48.890;8.240;2022-07-29T08:22:02;24.00;99.90
21559;DHT22;10940;48.890;8.240;2022-07-29T08:24:28;24.10;99.90
21559;DHT22;10940;48.890;8.240;2022-07-29T08:27:12;24.10;99.90
21559;DHT22;10940;48.890;8.240;2022-07-29T08:29:38;24.20;99.90
21559;DHT22;10940;48.890;8.240;2022-07-29T08:32:04;24.40;99.90
21559;DHT22;10940;48.890;8.240;2022-07-29T08:34:30;24.60;99.90
21559;DHT22;10940;48.890;8.240;2022-07-29T08:36:56;24.80;99.90
21559;DHT22;10940;48.890;8.240;2022-07-29T08:39:22;25.00;99.80
21559;DHT22;10940;48.890;8.240;2022-07-29T08:41:48;25.10;99.60
21559;DHT22;10940;48.890;8.240;2022-07-29T08:44:17;25.20;99.70
21559;DHT22;10940;48.890;8.240;2022-07-29T08:46:43;25.30;99.20
21559;DHT22;10940;48.890;8.240;2022-07-29T08:49:08;25.40;99.50
21559;DHT22;10940;48.890;8.240;2022-07-29T08:51:36;25.40;99.20
21559;DHT22;10940;48.890;8.240;2022-07-29T08:54:02;25.60;99.00
21559;DHT22;10940;48.890;8.240;2022-07-29T08:56:29;25.70;98.70
21559;DHT22;10940;48.890;8.240;2022-07-29T08:58:58;25.70;98.00
21559;DHT22;10940;48.890;8.240;2022-07-29T09:01:27;25.70;98.00
21559;DHT22;10940;48.890;8.240;2022-07-29T09:03:55;25.90;97.80
21559;DHT22;10940;48.890;8.240;2022-07-29T09:06:22;25.70;97.70
21559;DHT22;10940;48.890;8.240;2022-07-29T09:08:51;25.70;97.80
21559;DHT22;10940;48.890;8.240;2022-07-29T09:11:17;25.80;97.80
21559;DHT22;10940;48.890;8.240;2022-07-29T09:13:42;25.90;98.00
21559;DHT22;10940;48.890;8.240;2022-07-29T09:16:08;26.00;97.80
21559;DHT22;10940;48.890;8.240;2022-07-29T09:18:42;26.10;97.40
21559;DHT22;10940;48.890;8.240;2022-07-29T09:21:13;26.30;96.90
21559;DHT22;10940;48.890;8.240;2022-07-29T09:24:10;26.30;96.20
21559;DHT22;10940;48.890;8.240;2022-07-29T09:26:41;26.40;96.10
21559;DHT22;10940;48.890;8.240;2022-07-29T09:29:18;26.50;96.00
21559;DHT22;10940;48.890;8.240;2022-07-29T09:31:49;26.60;95.90
21559;DHT22;10940;48.890;8.240;2022-07-29T09:34:21;26.70;95.80
21559;DHT22;10940;48.890;8.240;2022-07-29T09:36:48;26.80;95.40
21559;DHT22;10940;48.890;8.240;2022-07-29T09:39:15;27.00;95.50
21559;DHT22;10940;48.890;8.240;2022-07-29T09:41:52;27.10;95.40
21559;DHT22;10940;48.890;8.240;2022-07-29T09:44:22;27.20;95.30
21559;DHT22;10940;48.890;8.240;2022-07-29T09:47:03;27.30;94.80
21559;DHT22;10940;48.890;8.240;2022-07-29T09:49:49;27.40;94.60
21559;DHT22;10940;48.890;8.240;2022-07-29T09:52:15;27.40;94.00
21559;DHT22;10940;48.890;8.240;2022-07-29T09:54:41;27.30;94.70
21559;DHT22;10940;48.890;8.240;2022-07-29T09:57:08;27.30;94.50
21559;DHT22;10940;48.890;8.240;2022-07-29T09:59:38;27.40;94.70
21559;DHT22;10940;48.890;8.240;2022-07-29T10:02:14;27.60;94.00
21559;DHT22;10940;48.890;8.240;2022-07-29T10:04:40;27.60;94.50
21559;DHT22;10940;48.890;8.240;2022-07-29T10:07:06;27.60;94.40
21559;DHT22;10940;48.890;8.240;2022-07-29T10:09:33;27.70;94.60
21559;DHT22;10940;48.890;8.240;2022-07-29T10:12:12;27.80;93.70
21559;DHT22;10940;48.890;8.240;2022-07-29T10:14:40;27.80;93.60
21559;DHT22;10940;48.890;8.240;2022-07-29T10:17:07;27.90;92.70
21559;DHT22;10940;48.890;8.240;2022-07-29T10:19:34;27.90;93.30
21559;DHT22;10940;48.890;8.240;2022-07-29T10:22:01;28.00;93.10
21559;DHT22;10940;48.890;8.240;2022-07-29T10:24:29;28.00;92.70
21559;DHT22;10940;48.890;8.240;2022-07-29T10:26:56;28.00;93.80
21559;DHT22;10940;48.890;8.240;2022-07-29T10:29:23;28.20;93.60
21559;DHT22;10940;48.890;8.240;2022-07-29T10:32:36;28.30;92.00
21559;DHT22;10940;48.890;8.240;2022-07-29T10:35:20;28.40;92.00
21559;DHT22;10940;48.890;8.240;2022-07-29T10:43:48;28.70;92.70
21559;DHT22;10940;48.890;8.240;2022-07-29T10:46:14;28.90;92.10
21559;DHT22;10940;48.890;8.240;2022-07-29T10:52:05;29.20;92.60
21559;DHT22;10940;48.890;8.240;2022-07-29T10:59:42;29.70;89.80
21559;DHT22;10940;48.890;8.240;2022-07-29T11:05:15;29.60;90.60
21559;DHT22;10940;48.890;8.240;2022-07-29T11:10:35;29.70;88.00
21559;DHT22;10940;48.890;8.240;2022-07-29T11:13:00;29.80;86.70
21559;DHT22;10940;48.890;8.240;2022-07-29T11:15:26;29.70;85.80
21559;DHT22;10940;48.890;8.240;2022-07-29T11:20:43;29.40;87.00
21559;DHT22;10940;48.890;8.240;2022-07-29T11:23:29;29.50;85.90
21559;DHT22;10940;48.890;8.240;2022-07-29T11:28:59;30.00;87.70
21559;DHT22;10940;48.890;8.240;2022-07-29T11:31:37;30.50;84.60
21559;DHT22;10940;48.890;8.240;2022-07-29T11:34:27;30.80;82.50
21559;DHT22;10940;48.890;8.240;2022-07-29T11:39:43;31.70;80.90
21559;DHT22;10940;48.890;8.240;2022-07-29T11:45:05;32.60;77.80
21559;DHT22;10940;48.890;8.240;2022-07-29T11:47:33;32.60;76.20
21559;DHT22;10940;48.890;8.240;2022-07-29T11:50:01;32.40;77.10
21559;DHT22;10940;48.890;8.240;2022-07-29T11:52:42;32.10;76.50
21559;DHT22;10940;48.890;8.240;2022-07-29T11:55:10;31.70;76.40
21559;DHT22;10940;48.890;8.240;2022-07-29T11:57:37;31.30;77.70
21559;DHT22;10940;48.890;8.240;2022-07-29T12:00:10;31.00;78.60
21559;DHT22;10940;48.890;8.240;2022-07-29T12:02:42;30.70;77.00
21559;DHT22;10940;48.890;8.240;2022-07-29T12:05:09;30.30;77.80
21559;DHT22;10940;48.890;8.240;2022-07-29T12:07:37;30.00;77.90
21559;DHT22;10940;48.890;8.240;2022-07-29T12:10:05;29.60;78.70
21559;DHT22;10940;48.890;8.240;2022-07-29T12:12:31;29.60;78.60
21559;DHT22;10940;48.890;8.240;2022-07-29T12:14:56;29.60;78.00
21559;DHT22;10940;48.890;8.240;2022-07-29T12:17:26;29.60;79.00
21559;DHT22;10940;48.890;8.240;2022-07-29T12:19:53;29.50;78.30
21559;DHT22;10940;48.890;8.240;2022-07-29T12:22:30;29.50;78.90
21559;DHT22;10940;48.890;8.240;2022-07-29T12:25:01;29.30;79.70
21559;DHT22;10940;48.890;8.240;2022-07-29T12:27:27;29.30;80.00
21559;DHT22;10940;48.890;8.240;2022-07-29T12:29:57;29.20;81.10
21559;DHT22;10940;48.890;8.240;2022-07-29T12:32:23;29.20;81.50
21559;DHT22;10940;48.890;8.240;2022-07-29T12:34:49;29.30;80.90
21559;DHT22;10940;48.890;8.240;2022-07-29T12:37:16;29.10;81.00
21559;DHT22;10940;48.890;8.240;2022-07-29T12:39:41;29.00;80.70
21559;DHT22;10940;48.890;8.240;2022-07-29T12:42:12;29.00;81.60
21559;DHT22;10940;48.890;8.240;2022-07-29T12:44:46;29.10;81.50
21559;DHT22;10940;48.890;8.240;2022-07-29T12:47:12;29.10;81.80
21559;DHT22;10940;48.890;8.240;2022-07-29T12:49:37;29.10;80.90
21559;DHT22;10940;48.890;8.240;2022-07-29T12:52:30;29.10;80.60
21559;DHT22;10940;48.890;8.240;2022-07-29T12:54:56;29.00;80.80
21559;DHT22;10940;48.890;8.240;2022-07-29T12:57:22;29.00;80.50
21559;DHT22;10940;48.890;8.240;2022-07-29T13:00:10;29.00;80.00
21559;DHT22;10940;48.890;8.240;2022-07-29T13:02:38;29.00;79.70
21559;DHT22;10940;48.890;8.240;2022-07-29T13:05:06;29.10;80.60
21559;DHT22;10940;48.890;8.240;2022-07-29T13:07:34;29.10;78.30
21559;DHT22;10940;48.890;8.240;2022-07-29T13:10:12;29.20;78.60
21559;DHT22;10940;48.890;8.240;2022-07-29T13:12:39;29.20;79.00
21559;DHT22;10940;48.890;8.240;2022-07-29T13:15:15;29.20;78.00
21559;DHT22;10940;48.890;8.240;2022-07-29T13:17:44;29.20;79.30
21559;DHT22;10940;48.890;8.240;2022-07-29T13:20:11;29.20;78.30
21559;DHT22;10940;48.890;8.240;2022-07-29T13:22:47;29.20;79.50
21559;DHT22;10940;48.890;8.240;2022-07-29T13:25:12;29.20;77.10
21559;DHT22;10940;48.890;8.240;2022-07-29T13:27:38;29.10;77.70
21559;DHT22;10940;48.890;8.240;2022-07-29T13:30:10;29.00;79.70
21559;DHT22;10940;48.890;8.240;2022-07-29T13:32:36;29.00;79.40
21559;DHT22;10940;48.890;8.240;2022-07-29T13:35:05;29.00;78.50
21559;DHT22;10940;48.890;8.240;2022-07-29T13:37:32;29.00;80.00
21559;DHT22;10940;48.890;8.240;2022-07-29T13:39:59;29.10;78.90
21559;DHT22;10940;48.890;8.240;2022-07-29T13:42:26;29.10;78.30
21559;DHT22;10940;48.890;8.240;2022-07-29T13:44:51;29.00;78.80
21559;DHT22;10940;48.890;8.240;2022-07-29T13:47:21;29.00;78.40
21559;DHT22;10940;48.890;8.240;2022-07-29T13:49:47;29.10;77.60
21559;DHT22;10940;48.890;8.240;2022-07-29T13:52:13;29.20;78.20
21559;DHT22;10940;48.890;8.240;2022-07-29T13:54:39;29.30;79.60
21559;DHT22;10940;48.890;8.240;2022-07-29T13:57:05;29.40;80.00
21559;DHT22;10940;48.890;8.240;2022-07-29T13:59:31;29.60;79.80
21559;DHT22;10940;48.890;8.240;2022-07-29T14:01:57;29.70;77.70
21559;DHT22;10940;48.890;8.240;2022-07-29T14:04:22;29.80;77.50
21559;DHT22;10940;48.890;8.240;2022-07-29T14:06:50;30.00;77.80
21559;DHT22;10940;48.890;8.240;2022-07-29T14:09:16;30.00;77.30
21559;DHT22;10940;48.890;8.240;2022-07-29T14:11:42;30.10;76.20
21559;DHT22;10940;48.890;8.240;2022-07-29T14:14:08;30.10;76.80
21559;DHT22;10940;48.890;8.240;2022-07-29T14:16:35;30.20;76.20
21559;DHT22;10940;48.890;8.240;2022-07-29T14:19:01;30.20;75.60
21559;DHT22;10940;48.890;8.240;2022-07-29T14:21:27;30.00;74.50
21559;DHT22;10940;48.890;8.240;2022-07-29T14:23:53;30.00;74.90
21559;DHT22;10940;48.890;8.240;2022-07-29T14:26:20;29.80;74.80
21559;DHT22;10940;48.890;8.240;2022-07-29T14:28:47;29.80;74.50
21559;DHT22;10940;48.890;8.240;2022-07-29T14:31:13;29.80;73.00
21559;DHT22;10940;48.890;8.240;2022-07-29T14:33:38;29.80;75.00
21559;DHT22;10940;48.890;8.240;2022-07-29T14:36:04;29.80;76.40
21559;DHT22;10940;48.890;8.240;2022-07-29T14:38:29;30.00;75.20
21559;DHT22;10940;48.890;8.240;2022-07-29T14:40:55;30.10;75.90
21559;DHT22;10940;48.890;8.240;2022-07-29T14:43:21;30.30;76.40
21559;DHT22;10940;48.890;8.240;2022-07-29T14:45:46;30.30;75.80
21559;DHT22;10940;48.890;8.240;2022-07-29T14:48:12;30.50;75.30
21559;DHT22;10940;48.890;8.240;2022-07-29T14:50:38;30.50;72.40
21559;DHT22;10940;48.890;8.240;2022-07-29T14:53:03;30.50;72.90
21559;DHT22;10940;48.890;8.240;2022-07-29T14:55:29;30.50;70.90
21559;DHT22;10940;48.890;8.240;2022-07-29T14:57:55;30.50;72.20
21559;DHT22;10940;48.890;8.240;2022-07-29T15:00:20;30.50;71.10
21559;DHT22;10940;48.890;8.240;2022-07-29T15:02:47;30.50;71.40
21559;DHT22;10940;48.890;8.240;2022-07-29T15:05:13;30.50;71.30
21559;DHT22;10940;48.890;8.240;2022-07-29T15:07:38;30.40;70.20
21559;DHT22;10940;48.890;8.240;2022-07-29T15:10:05;30.30;72.60
21559;DHT22;10940;48.890;8.240;2022-07-29T15:12:31;30.30;71.40
21559;DHT22;10940;48.890;8.240;2022-07-29T15:14:57;30.30;71.40
21559;DHT22;10940;48.890;8.240;2022-07-29T15:17:22;30.30;70.90
21559;DHT22;10940;48.890;8.240;2022-07-29T15:19:48;30.30;72.40
21559;DHT22;10940;48.890;8.240;2022-07-29T15:22:14;30.30;71.20
21559;DHT22;10940;48.890;8.240;2022-07-29T15:24:39;30.30;71.10
21559;DHT22;10940;48.890;8.240;2022-07-29T15:27:05;30.40;71.90
21559;DHT22;10940;48.890;8.240;2022-07-29T15:29:30;30.50;70.80
21559;DHT22;10940;48.890;8.240;2022-07-29T15:31:56;30.60;71.70
21559;DHT22;10940;48.890;8.240;2022-07-29T15:34:22;30.70;72.10
21559;DHT22;10940;48.890;8.240;2022-07-29T15:36:52;30.70;70.90
21559;DHT22;10940;48.890;8.240;2022-07-29T15:39:18;30.60;70.60
21559;DHT22;10940;48.890;8.240;2022-07-29T15:41:44;30.70;71.30
21559;DHT22;10940;48.890;8.240;2022-07-29T15:44:10;30.60;71.80
21559;DHT22;10940;48.890;8.240;2022-07-29T15:46:35;30.60;71.50
21559;DHT22;10940;48.890;8.240;2022-07-29T15:49:19;30.60;71.70
21559;DHT22;10940;48.890;8.240;2022-07-29T15:51:45;30.40;72.40
21559;DHT22;10940;48.890;8.240;2022-07-29T15:54:11;30.30;72.80
21559;DHT22;10940;48.890;8.240;2022-07-29T15:56:37;30.20;73.20
21559;DHT22;10940;48.890;8.240;2022-07-29T15:59:03;30.10;74.00
21559;DHT22;10940;48.890;8.240;2022-07-29T16:01:28;29.90;74.80
21559;DHT22;10940;48.890;8.240;2022-07-29T16:03:54;29.80;74.50
21559;DHT22;10940;48.890;8.240;2022-07-29T16:06:20;29.70;75.20
21559;DHT22;10940;48.890;8.240;2022-07-29T16:08:46;29.70;75.10
21559;DHT22;10940;48.890;8.240;2022-07-29T16:11:11;29.60;76.70
21559;DHT22;10940;48.890;8.240;2022-07-29T16:13:37;29.70;76.20
21559;DHT22;10940;48.890;8.240;2022-07-29T16:16:03;29.80;75.10
21559;DHT22;10940;48.890;8.240;2022-07-29T16:18:28;29.80;74.40
21559;DHT22;10940;48.890;8.240;2022-07-29T16:20:54;29.90;75.20